Time;durP1;ratioP1;P1;durP2;ratioP2;P2;SDS_P1;SDS_P2;PMS_P1;PMS_P2;Temp;Humidity;BMP_temperature;BMP_pressure;BME280_temperature;BME280_humidity;BME280_pressure;Samples;Min_cycle;Max_cycle;Signal;HPM_P1;HPM_P2
2022/05/06 00:01:38;;;;;;;2.67;0.80;;;12.60;99.90;;;;;;5071521;28;20036;-74
2022/05/06 00:04:06;;;;;;;3.15;0.90;;;12.60;99.90;;;;;;5071189;28;20052;-76
2022/05/06 00:06:34;;;;;;;3.58;0.80;;;12.60;99.90;;;;;;5070913;28;20060;-70
2022/05/06 00:09:02;;;;;;;2.53;0.68;;;12.60;99.90;;;;;;5071043;28;20029;-76
2022/05/06 00:11:29;;;;;;;5.93;1.08;;;12.60;99.90;;;;;;5070967;28;20013;-75
2022/05/06 00:13:56;;;;;;;2.13;0.80;;;12.80;99.90;;;;;;5071113;28;20023;-76
2022/05/06 00:16:25;;;;;;;1.85;0.95;;;12.80;99.90;;;;;;5071130;28;20020;-69
2022/05/06 00:18:53;;;;;;;3.00;0.55;;;12.70;99.90;;;;;;5072166;28;20711;-74
2022/05/06 00:21:21;;;;;;;3.85;0.90;;;12.80;99.90;;;;;;5073677;28;20107;-72
2022/05/06 00:23:49;;;;;;;1.38;0.52;;;12.80;99.90;;;;;;5073898;28;20051;-70
2022/05/06 00:26:16;;;;;;;1.95;0.60;;;12.70;99.90;;;;;;5073838;28;20021;-69
2022/05/06 00:28:44;;;;;;;2.53;0.80;;;12.80;99.90;;;;;;5073881;28;20013;-69
2022/05/06 00:31:12;;;;;;;2.53;0.70;;;12.80;99.90;;;;;;5073853;28;20474;-69
2022/05/06 00:33:39;;;;;;;1.63;0.65;;;12.90;99.90;;;;;;5073541;28;20028;-69
2022/05/06 00:36:07;;;;;;;3.65;0.52;;;13.00;99.90;;;;;;5073159;28;20129;-76
2022/05/06 00:38:34;;;;;;;1.65;0.50;;;13.00;99.90;;;;;;5073431;28;20464;-76
2022/05/06 00:41:01;;;;;;;2.88;0.90;;;13.10;99.90;;;;;;5073653;28;20021;-76
2022/05/06 00:43:29;;;;;;;7.43;0.90;;;13.10;99.90;;;;;;5072794;28;20021;-69
2022/05/06 00:45:57;;;;;;;1.98;0.60;;;13.20;99.90;;;;;;5072882;28;20480;-77
2022/05/06 00:48:33;;;;;;;1.70;0.75;;;13.30;99.90;;;;;;5068166;28;20099;-78
2022/05/06 00:51:04;;;;;;;5.60;0.80;;;13.30;99.90;;;;;;5071495;28;20028;-74
2022/05/06 00:53:31;;;;;;;1.85;0.88;;;13.30;99.90;;;;;;5071685;28;20017;-77
2022/05/06 00:55:58;;;;;;;1.90;0.65;;;13.40;99.90;;;;;;5071313;28;20036;-73
2022/05/06 00:58:31;;;;;;;4.45;0.50;;;13.50;99.90;;;;;;5071452;28;20400;-71
2022/05/06 01:00:58;;;;;;;2.38;0.40;;;13.70;99.90;;;;;;5069444;28;20100;-73
2022/05/06 01:03:26;;;;;;;3.63;1.13;;;13.60;99.90;;;;;;5069558;28;20031;-71
2022/05/06 01:05:53;;;;;;;0.60;0.57;;;13.70;99.90;;;;;;5069443;28;20021;-71
2022/05/06 01:08:21;;;;;;;3.17;0.88;;;13.80;99.90;;;;;;5069663;28;20141;-75
2022/05/06 01:10:49;;;;;;;2.22;0.60;;;13.80;99.90;;;;;;5070247;28;20044;-71
2022/05/06 01:13:18;;;;;;;5.95;0.50;;;13.80;99.90;;;;;;5070128;28;20017;-71
2022/05/06 01:15:46;;;;;;;1.30;0.63;;;14.00;99.90;;;;;;5070340;28;20048;-70
2022/05/06 01:18:13;;;;;;;0.60;0.45;;;14.00;99.90;;;;;;5072225;28;20105;-75
2022/05/06 01:20:48;;;;;;;1.98;0.80;;;14.10;99.90;;;;;;5072093;28;20397;-74
2022/05/06 01:23:16;;;;;;;1.40;0.65;;;14.00;99.90;;;;;;5072427;28;20465;-75
2022/05/06 01:25:44;;;;;;;3.45;0.98;;;14.00;99.90;;;;;;5071674;28;20033;-71
2022/05/06 01:28:14;;;;;;;1.98;0.73;;;13.90;99.90;;;;;;5072208;28;20074;-75
2022/05/06 01:30:47;;;;;;;3.13;0.63;;;14.00;99.90;;;;;;5072520;28;20021;-76
2022/05/06 01:33:21;;;;;;;3.78;0.77;;;14.10;99.90;;;;;;5072649;28;20458;-75
2022/05/06 01:35:51;;;;;;;2.40;0.60;;;14.10;99.90;;;;;;5070149;28;20056;-70
2022/05/06 01:38:27;;;;;;;1.52;0.70;;;14.20;99.90;;;;;;5072288;28;20040;-71
2022/05/06 01:41:09;;;;;;;1.98;0.70;;;14.20;99.90;;;;;;5069907;28;20053;-70
2022/05/06 01:43:43;;;;;;;1.45;0.68;;;14.30;99.90;;;;;;5070197;28;20026;-75
2022/05/06 01:46:13;;;;;;;2.93;0.77;;;14.20;99.90;;;;;;5069696;28;20028;-75
2022/05/06 01:48:43;;;;;;;2.75;0.90;;;14.20;99.90;;;;;;5072022;28;20017;-75
2022/05/06 01:51:16;;;;;;;1.33;0.52;;;14.20;99.90;;;;;;5072631;28;20016;-70
2022/05/06 01:53:44;;;;;;;2.05;0.73;;;14.20;99.90;;;;;;5069423;28;20052;-70
2022/05/06 01:56:12;;;;;;;7.00;0.90;;;14.30;99.90;;;;;;5074090;28;20020;-71
2022/05/06 01:58:39;;;;;;;4.25;0.90;;;14.40;99.90;;;;;;5074788;28;20390;-70
2022/05/06 02:01:07;;;;;;;0.80;0.50;;;14.40;99.90;;;;;;5075509;28;20032;-70
2022/05/06 02:06:20;;;;;;;3.28;0.80;;;14.60;99.90;;;;;;5074703;28;20036;-73
2022/05/06 02:08:47;;;;;;;4.03;0.55;;;14.60;99.90;;;;;;5074634;28;20024;-71
2022/05/06 02:11:15;;;;;;;1.77;0.88;;;14.60;99.90;;;;;;5075098;28;20031;-70
2022/05/06 02:13:42;;;;;;;1.75;0.70;;;14.70;99.90;;;;;;5074940;28;20017;-70
2022/05/06 02:16:10;;;;;;;3.75;0.70;;;14.80;99.90;;;;;;5074840;28;20029;-71
2022/05/06 02:18:37;;;;;;;1.55;0.50;;;14.80;99.90;;;;;;5075202;28;20056;-70
2022/05/06 02:21:04;;;;;;;3.28;0.50;;;14.90;99.90;;;;;;5076416;28;20041;-70
2022/05/06 02:23:32;;;;;;;5.32;0.82;;;14.90;99.90;;;;;;5076218;28;20063;-70
2022/05/06 02:25:59;;;;;;;1.52;0.77;;;14.90;99.90;;;;;;5076517;28;20035;-70
2022/05/06 02:28:26;;;;;;;4.55;0.68;;;14.90;99.90;;;;;;5076668;28;20411;-73
2022/05/06 02:33:39;;;;;;;1.15;0.75;;;14.90;99.90;;;;;;5076404;28;20056;-76
2022/05/06 02:36:07;;;;;;;2.92;0.65;;;14.90;99.90;;;;;;5075773;28;20056;-69
2022/05/06 02:38:34;;;;;;;1.40;0.43;;;15.00;99.90;;;;;;5075919;28;20029;-68
2022/05/06 02:41:02;;;;;;;1.55;0.55;;;15.00;99.90;;;;;;5073958;28;20013;-69
2022/05/06 02:43:29;;;;;;;2.47;0.45;;;15.10;99.90;;;;;;5058277;28;20048;-76
2022/05/06 02:45:56;;;;;;;1.58;0.60;;;15.10;99.90;;;;;;5068366;28;20081;-77
2022/05/06 02:48:24;;;;;;;1.35;0.70;;;15.20;99.90;;;;;;5074925;28;20096;-77
2022/05/06 02:50:51;;;;;;;1.30;0.32;;;15.20;99.90;;;;;;5071812;28;20029;-76
2022/05/06 02:53:21;;;;;;;1.08;0.55;;;15.30;99.90;;;;;;5073583;28;20497;-70
2022/05/06 02:55:48;;;;;;;1.90;0.93;;;15.30;99.90;;;;;;5074165;28;20488;-69
2022/05/06 02:58:16;;;;;;;2.40;0.75;;;15.40;99.90;;;;;;5074843;28;20055;-69
2022/05/06 03:00:43;;;;;;;3.35;0.50;;;15.30;99.90;;;;;;5074857;28;20439;-70
2022/05/06 03:03:10;;;;;;;1.52;0.60;;;15.40;99.90;;;;;;5073213;28;20044;-76
2022/05/06 03:05:38;;;;;;;0.93;0.40;;;15.50;99.90;;;;;;5072941;28;20024;-70
2022/05/06 03:08:05;;;;;;;3.78;0.60;;;15.50;99.90;;;;;;5070410;28;20032;-69
2022/05/06 03:10:33;;;;;;;1.92;0.50;;;15.60;99.90;;;;;;5060271;28;20024;-75
2022/05/06 03:13:00;;;;;;;2.75;0.70;;;15.60;99.90;;;;;;5074077;28;20036;-71
2022/05/06 03:15:28;;;;;;;8.18;1.50;;;15.60;99.90;;;;;;5073086;28;20020;-75
2022/05/06 03:17:56;;;;;;;6.03;0.65;;;15.60;99.90;;;;;;5074624;28;20028;-69
2022/05/06 03:20:23;;;;;;;0.73;0.40;;;15.60;99.90;;;;;;5074799;28;20082;-69
2022/05/06 03:22:52;;;;;;;1.02;0.57;;;15.60;99.90;;;;;;5074921;28;20021;-69
2022/05/06 03:25:20;;;;;;;2.58;0.63;;;15.60;99.90;;;;;;5074812;28;20016;-75
2022/05/06 03:28:00;;;;;;;0.57;0.32;;;15.60;99.90;;;;;;5080509;28;20519;-80
2022/05/06 03:30:28;;;;;;;2.47;0.85;;;15.60;99.90;;;;;;5083362;28;20032;-77
2022/05/06 03:32:57;;;;;;;3.33;0.65;;;15.70;99.90;;;;;;5084789;28;20012;-69
2022/05/06 03:35:24;;;;;;;1.27;0.50;;;15.60;99.90;;;;;;5079824;28;20045;-77
2022/05/06 03:37:52;;;;;;;2.72;0.65;;;15.60;99.90;;;;;;5082701;28;20469;-69
2022/05/06 03:40:20;;;;;;;2.08;0.57;;;15.70;99.90;;;;;;5084082;28;20028;-77
2022/05/06 03:42:48;;;;;;;0.63;0.30;;;15.70;99.90;;;;;;5074201;28;20025;-78
2022/05/06 03:45:15;;;;;;;2.33;0.50;;;15.80;99.90;;;;;;5074725;28;20421;-71
2022/05/06 03:47:42;;;;;;;1.95;0.57;;;15.80;99.90;;;;;;5074829;28;20027;-68
2022/05/06 03:52:55;;;;;;;0.80;0.50;;;15.70;99.90;;;;;;5074861;28;20034;-69
2022/05/06 03:55:23;;;;;;;2.22;0.65;;;15.70;99.90;;;;;;5074036;28;20033;-68
2022/05/06 03:57:51;;;;;;;1.05;0.68;;;15.70;99.90;;;;;;5074153;28;20020;-68
2022/05/06 04:00:21;;;;;;;5.07;0.65;;;15.70;99.90;;;;;;5075517;28;20108;-76
2022/05/06 04:02:48;;;;;;;1.38;0.80;;;15.80;99.90;;;;;;5071813;28;20032;-69
2022/05/06 04:05:16;;;;;;;2.65;0.50;;;15.80;99.90;;;;;;5073929;28;20093;-76
2022/05/06 04:07:43;;;;;;;1.58;0.65;;;15.80;99.90;;;;;;5073732;28;20012;-76
2022/05/06 04:10:10;;;;;;;3.85;0.60;;;15.80;99.90;;;;;;5073589;28;20017;-69
2022/05/06 04:12:39;;;;;;;3.58;0.80;;;15.80;99.90;;;;;;5074116;28;20024;-69
2022/05/06 04:15:06;;;;;;;1.85;0.40;;;15.80;99.90;;;;;;5073746;28;20016;-69
2022/05/06 04:17:34;;;;;;;1.00;0.50;;;15.80;99.90;;;;;;5073577;28;20024;-76
2022/05/06 04:25:31;;;;;;;1.80;0.57;;;15.70;99.90;;;;;;5074166;28;20055;-69
2022/05/06 04:27:59;;;;;;;0.95;0.60;;;15.70;99.90;;;;;;5073917;28;20027;-69
2022/05/06 04:30:26;;;;;;;0.75;0.47;;;15.80;99.90;;;;;;5074101;28;20485;-69
2022/05/06 04:32:53;;;;;;;1.40;0.60;;;15.80;99.90;;;;;;5074202;28;20052;-69
2022/05/06 04:35:21;;;;;;;5.07;0.68;;;15.80;99.90;;;;;;5073660;28;20567;-69
2022/05/06 04:37:48;;;;;;;1.58;0.70;;;15.80;99.90;;;;;;5073778;28;20059;-69
2022/05/06 04:40:16;;;;;;;1.13;0.65;;;15.70;99.90;;;;;;5074028;28;20033;-75
2022/05/06 04:42:45;;;;;;;0.93;0.60;;;15.80;99.90;;;;;;5073898;28;20035;-69
2022/05/06 04:45:12;;;;;;;3.72;0.60;;;15.80;99.90;;;;;;5074009;28;20035;-69
2022/05/06 04:47:39;;;;;;;1.88;0.50;;;15.80;99.90;;;;;;5073632;28;20028;-76
2022/05/06 04:50:07;;;;;;;10.90;1.92;;;15.80;99.90;;;;;;5073620;28;20020;-76
2022/05/06 04:52:35;;;;;;;1.27;0.50;;;15.80;99.90;;;;;;5073630;28;20020;-76
2022/05/06 04:55:03;;;;;;;2.78;0.43;;;15.80;99.90;;;;;;5073484;28;20103;-77
2022/05/06 04:57:31;;;;;;;1.33;0.38;;;15.80;99.90;;;;;;5073708;28;20020;-75
2022/05/06 04:59:58;;;;;;;1.65;0.68;;;15.80;99.90;;;;;;5073709;28;20041;-74
2022/05/06 05:02:27;;;;;;;2.53;0.50;;;15.80;99.90;;;;;;5073654;28;20428;-77
2022/05/06 05:04:58;;;;;;;1.88;0.43;;;15.80;99.90;;;;;;5073552;28;20044;-69
2022/05/06 05:07:26;;;;;;;1.05;0.50;;;15.80;99.90;;;;;;5073568;28;20473;-69
2022/05/06 05:09:53;;;;;;;1.90;0.52;;;15.80;99.90;;;;;;5073447;28;20025;-75
2022/05/06 05:12:20;;;;;;;1.42;0.40;;;15.80;99.90;;;;;;5053364;28;20528;-69
2022/05/06 05:14:48;;;;;;;2.00;0.50;;;15.80;99.90;;;;;;5052645;28;20108;-69
2022/05/06 05:17:15;;;;;;;1.42;0.40;;;15.80;99.90;;;;;;5052644;28;20053;-69
2022/05/06 05:19:43;;;;;;;2.50;0.85;;;15.80;99.90;;;;;;5053411;28;20029;-76
2022/05/06 05:22:10;;;;;;;0.95;0.40;;;15.80;99.90;;;;;;5053387;28;20049;-69
2022/05/06 05:24:37;;;;;;;2.65;0.55;;;15.70;99.90;;;;;;5053387;28;20035;-69
2022/05/06 05:27:05;;;;;;;0.82;0.52;;;15.70;99.90;;;;;;5072656;28;20020;-69
2022/05/06 05:29:33;;;;;;;2.15;0.65;;;15.70;99.90;;;;;;5068046;28;20134;-70
2022/05/06 05:32:00;;;;;;;3.65;0.57;;;15.70;99.90;;;;;;5076829;28;20075;-69
2022/05/06 05:34:27;;;;;;;1.65;0.50;;;15.70;99.90;;;;;;5074091;28;20166;-76
2022/05/06 05:36:54;;;;;;;3.67;0.50;;;15.70;99.90;;;;;;5076725;28;20056;-69
2022/05/06 05:39:22;;;;;;;1.00;0.50;;;15.70;99.90;;;;;;5077140;28;20123;-76
2022/05/06 05:41:49;;;;;;;3.97;0.60;;;15.70;99.90;;;;;;5077084;28;20504;-73
2022/05/06 05:49:48;;;;;;;1.50;0.60;;;15.70;99.90;;;;;;5074971;28;20120;-81
2022/05/06 05:52:15;;;;;;;0.55;0.40;;;15.60;99.90;;;;;;5075811;28;20206;-83
2022/05/06 05:54:43;;;;;;;3.65;0.43;;;15.60;99.90;;;;;;5076303;28;20377;-69
2022/05/06 05:57:10;;;;;;;2.75;0.70;;;15.60;99.90;;;;;;5076285;28;20082;-75
2022/05/06 05:59:38;;;;;;;1.65;0.50;;;15.50;99.90;;;;;;5076729;28;20040;-77
2022/05/06 06:02:06;;;;;;;1.30;0.52;;;15.50;99.90;;;;;;5076929;28;20017;-69
2022/05/06 06:04:33;;;;;;;3.78;0.50;;;15.50;99.90;;;;;;5076437;28;20551;-76
2022/05/06 06:07:00;;;;;;;0.60;0.40;;;15.40;99.90;;;;;;5076092;28;20457;-69
2022/05/06 06:09:28;;;;;;;0.82;0.30;;;15.40;99.90;;;;;;5074953;28;20039;-79
2022/05/06 06:11:55;;;;;;;1.63;0.40;;;15.40;99.90;;;;;;5066528;28;20028;-79
2022/05/06 06:14:22;;;;;;;1.10;0.60;;;15.30;99.90;;;;;;5075312;28;20035;-76
2022/05/06 06:16:50;;;;;;;1.55;0.65;;;15.30;99.90;;;;;;5058364;28;20025;-78
2022/05/06 06:19:18;;;;;;;1.42;0.60;;;15.30;99.90;;;;;;5070543;28;20090;-80
2022/05/06 06:21:45;;;;;;;2.25;0.47;;;15.20;99.90;;;;;;5062934;28;20036;-73
2022/05/06 06:24:13;;;;;;;1.48;0.55;;;15.20;99.90;;;;;;5063098;28;20115;-77
2022/05/06 06:26:41;;;;;;;1.35;0.40;;;15.20;99.90;;;;;;5070526;28;20539;-77
2022/05/06 06:29:08;;;;;;;1.77;0.38;;;15.20;99.90;;;;;;5057859;28;20036;-71
2022/05/06 06:31:37;;;;;;;0.98;0.50;;;15.20;99.90;;;;;;5067102;28;20024;-73
2022/05/06 06:34:05;;;;;;;1.60;0.50;;;15.10;99.90;;;;;;5065697;28;20107;-76
2022/05/06 06:36:32;;;;;;;0.95;0.50;;;15.10;99.90;;;;;;5073835;28;20431;-72
2022/05/06 06:39:00;;;;;;;1.38;0.45;;;15.10;99.90;;;;;;5056090;28;20125;-74
2022/05/06 06:41:27;;;;;;;1.17;0.60;;;15.00;99.90;;;;;;5066846;28;20015;-70
2022/05/06 06:43:56;;;;;;;1.35;0.47;;;15.00;99.90;;;;;;5061870;28;20028;-77
2022/05/06 06:46:23;;;;;;;6.30;0.80;;;14.90;99.90;;;;;;5065956;28;20051;-73
2022/05/06 06:48:51;;;;;;;4.95;1.02;;;14.90;99.90;;;;;;5072034;28;20033;-76
2022/05/06 06:51:19;;;;;;;1.92;0.47;;;14.80;99.90;;;;;;5056832;28;20078;-77
2022/05/06 06:53:48;;;;;;;1.20;0.50;;;14.80;99.90;;;;;;5074436;28;20135;-72
2022/05/06 06:56:15;;;;;;;4.72;0.60;;;14.70;99.90;;;;;;5074315;28;20047;-77
2022/05/06 06:58:43;;;;;;;2.40;0.50;;;14.70;99.90;;;;;;5058171;28;20459;-74
2022/05/06 07:01:11;;;;;;;1.92;0.77;;;14.60;99.90;;;;;;5070737;28;20092;-77
2022/05/06 07:03:38;;;;;;;3.40;0.50;;;14.60;99.90;;;;;;5064971;28;20031;-77
2022/05/06 07:11:55;;;;;;;0.83;0.57;;;14.40;99.90;;;;;;5062569;28;20056;-75
2022/05/06 07:14:25;;;;;;;1.20;0.57;;;14.40;99.90;;;;;;5072890;28;20361;-71
2022/05/06 07:16:55;;;;;;;2.25;0.50;;;14.30;99.90;;;;;;5074183;28;20366;-71
2022/05/06 07:19:23;;;;;;;0.35;0.30;;;14.20;99.90;;;;;;5074487;28;20469;-69
2022/05/06 07:21:51;;;;;;;2.05;0.93;;;14.20;99.90;;;;;;5074717;28;20465;-70
2022/05/06 07:24:19;;;;;;;0.80;0.40;;;14.10;99.90;;;;;;5074397;28;20082;-73
2022/05/06 07:26:48;;;;;;;4.57;0.73;;;14.10;99.90;;;;;;5074530;28;20116;-76
2022/05/06 07:29:16;;;;;;;5.50;0.65;;;14.00;99.90;;;;;;5074378;28;20024;-70
2022/05/06 07:31:44;;;;;;;1.45;0.50;;;14.00;99.90;;;;;;5074426;28;20493;-76
2022/05/06 07:34:12;;;;;;;0.82;0.52;;;14.00;99.90;;;;;;5074217;28;20048;-75
2022/05/06 07:36:43;;;;;;;0.93;0.50;;;13.90;99.90;;;;;;5074297;28;20024;-77
2022/05/06 07:39:15;;;;;;;0.50;0.38;;;13.80;99.90;;;;;;5074887;28;20469;-69
2022/05/06 07:41:43;;;;;;;1.95;0.50;;;13.80;99.90;;;;;;5075072;28;20029;-69
2022/05/06 07:44:10;;;;;;;2.83;0.70;;;13.80;99.90;;;;;;5074901;28;20024;-76
2022/05/06 07:46:38;;;;;;;0.80;0.50;;;13.80;99.90;;;;;;5074701;28;20183;-77
2022/05/06 07:49:06;;;;;;;1.00;0.52;;;13.80;99.90;;;;;;5074612;28;20029;-69
2022/05/06 07:51:34;;;;;;;1.52;0.50;;;13.70;99.90;;;;;;5074824;28;20026;-69
2022/05/06 07:54:02;;;;;;;1.23;0.50;;;13.70;99.90;;;;;;5074072;28;20033;-69
2022/05/06 07:56:30;;;;;;;3.03;0.40;;;13.70;99.90;;;;;;5074347;28;20032;-69
2022/05/06 07:58:57;;;;;;;1.23;0.50;;;13.70;99.90;;;;;;5073978;28;20040;-69
2022/05/06 08:06:56;;;;;;;3.10;0.70;;;13.50;99.90;;;;;;5054395;28;20040;-69
2022/05/06 08:09:23;;;;;;;2.00;0.98;;;13.40;99.90;;;;;;5053702;28;20044;-71
2022/05/06 08:11:51;;;;;;;1.65;0.70;;;13.30;99.90;;;;;;5054076;28;20025;-69
2022/05/06 08:14:19;;;;;;;1.17;0.68;;;13.30;99.90;;;;;;5053990;28;20036;-71
2022/05/06 08:16:48;;;;;;;1.65;0.82;;;13.20;99.90;;;;;;5053849;28;20130;-77
2022/05/06 08:19:16;;;;;;;1.25;0.65;;;13.30;99.90;;;;;;5053552;28;20123;-70
2022/05/06 08:21:43;;;;;;;1.67;0.57;;;13.20;99.90;;;;;;5060369;28;20052;-76
2022/05/06 08:24:11;;;;;;;1.58;0.77;;;13.20;99.90;;;;;;5071854;28;20020;-77
2022/05/06 08:26:39;;;;;;;3.38;0.47;;;13.20;99.90;;;;;;5071147;28;20024;-75
2022/05/06 08:29:06;;;;;;;3.05;0.77;;;13.10;99.90;;;;;;5070888;28;20024;-73
2022/05/06 08:31:37;;;;;;;1.25;0.50;;;13.10;99.90;;;;;;5072618;28;20028;-69
2022/05/06 08:34:12;;;;;;;2.15;0.90;;;13.10;99.90;;;;;;5072997;28;20032;-77
2022/05/06 08:36:43;;;;;;;1.73;0.60;;;13.10;99.90;;;;;;5072650;28;20116;-70
2022/05/06 08:39:14;;;;;;;1.13;0.50;;;13.00;99.90;;;;;;5072604;28;20076;-69
2022/05/06 08:41:41;;;;;;;1.83;0.60;;;13.00;99.90;;;;;;5072172;28;20031;-72
2022/05/06 08:52:40;;;;;;;5.47;0.63;;;13.00;99.90;;;;;;5067517;28;20028;-77
2022/05/06 08:55:08;;;;;;;1.08;0.60;;;13.00;99.90;;;;;;5054412;28;20052;-77
2022/05/06 08:57:36;;;;;;;1.08;0.65;;;13.00;99.90;;;;;;5052040;28;20025;-76
2022/05/06 09:00:07;;;;;;;6.72;1.08;;;12.90;99.90;;;;;;5050845;28;20033;-76
2022/05/06 09:02:38;;;;;;;0.85;0.50;;;12.90;99.90;;;;;;5062530;28;20025;-77
2022/05/06 09:05:18;;;;;;;5.68;0.90;;;12.80;99.90;;;;;;5065150;28;20044;-77
2022/05/06 09:08:02;;;;;;;1.40;0.70;;;12.80;99.90;;;;;;5063569;28;20021;-78
2022/05/06 09:10:31;;;;;;;1.25;0.50;;;12.70;99.90;;;;;;5054295;28;20025;-70
2022/05/06 09:13:02;;;;;;;1.00;0.70;;;12.60;99.90;;;;;;5052664;28;20532;-69
2022/05/06 09:18:23;;;;;;;1.35;0.80;;;12.50;99.90;;;;;;5055387;28;20036;-69
2022/05/06 09:20:51;;;;;;;1.40;0.90;;;12.50;99.90;;;;;;5070511;28;20042;-70
2022/05/06 09:23:28;;;;;;;2.40;1.02;;;12.40;99.90;;;;;;5056633;28;20104;-74
2022/05/06 09:25:56;;;;;;;2.15;1.15;;;12.40;99.90;;;;;;5051757;28;20032;-70
2022/05/06 09:28:35;;;;;;;1.75;0.70;;;12.30;99.90;;;;;;5051509;28;20470;-69
2022/05/06 09:31:05;;;;;;;3.40;1.25;;;12.30;99.90;;;;;;5052935;28;20060;-77
2022/05/06 09:33:37;;;;;;;3.78;0.98;;;12.20;99.90;;;;;;5051433;28;20365;-69
2022/05/06 09:36:23;;;;;;;2.38;1.00;;;12.20;99.90;;;;;;5051219;28;20088;-71
2022/05/06 09:39:04;;;;;;;1.35;1.05;;;12.10;99.90;;;;;;5051638;28;20025;-76
2022/05/06 09:41:33;;;;;;;2.20;1.00;;;12.00;99.90;;;;;;5051787;28;20083;-69
2022/05/06 09:44:06;;;;;;;2.40;0.95;;;12.00;99.90;;;;;;5060359;28;20128;-69
2022/05/06 09:46:34;;;;;;;6.57;1.48;;;12.00;99.90;;;;;;5067544;28;20552;-77
2022/05/06 09:49:03;;;;;;;4.72;1.35;;;12.00;99.90;;;;;;5062006;28;20032;-71
2022/05/06 09:51:35;;;;;;;1.77;0.88;;;11.90;99.90;;;;;;5071738;28;20081;-71
2022/05/06 09:54:05;;;;;;;5.18;1.10;;;11.90;99.90;;;;;;5056896;28;20025;-70
2022/05/06 09:56:32;;;;;;;6.10;1.45;;;12.00;99.90;;;;;;5067283;28;20024;-72
2022/05/06 09:59:00;;;;;;;2.60;1.20;;;11.90;99.90;;;;;;5051672;28;20501;-72
2022/05/06 10:01:28;;;;;;;2.70;1.42;;;11.90;99.90;;;;;;5051610;28;20087;-77
2022/05/06 10:03:56;;;;;;;2.85;1.20;;;11.90;99.90;;;;;;5051608;28;20021;-70
2022/05/06 10:06:25;;;;;;;2.50;1.30;;;11.90;99.90;;;;;;5051336;28;20017;-74
2022/05/06 10:08:58;;;;;;;2.70;1.20;;;11.90;99.90;;;;;;5051628;28;20048;-72
2022/05/06 10:11:29;;;;;;;3.03;1.55;;;11.90;99.90;;;;;;5051591;28;20025;-78
2022/05/06 10:14:03;;;;;;;2.67;1.50;;;11.90;99.90;;;;;;5051738;28;20025;-71
2022/05/06 10:16:37;;;;;;;3.33;1.45;;;11.80;99.90;;;;;;5053290;28;20028;-71
2022/05/06 10:19:24;;;;;;;3.38;1.55;;;11.80;99.90;;;;;;5054663;28;20087;-79
2022/05/06 10:21:52;;;;;;;3.72;1.92;;;11.80;99.90;;;;;;5055291;28;20500;-70
2022/05/06 10:24:20;;;;;;;2.67;1.80;;;11.80;99.90;;;;;;5055374;28;20071;-77
2022/05/06 10:26:49;;;;;;;2.83;1.23;;;11.80;99.90;;;;;;5055157;28;20097;-72
2022/05/06 10:32:27;;;;;;;3.30;1.52;;;11.80;99.90;;;;;;5055013;28;20386;-77
2022/05/06 10:35:05;;;;;;;1.65;1.02;;;11.70;99.90;;;;;;5054459;28;20067;-70
2022/05/06 10:37:41;;;;;;;3.63;1.50;;;11.70;99.90;;;;;;5055401;28;20036;-70
2022/05/06 10:40:23;;;;;;;;;;;11.70;99.90;;;;;;5055734;28;20110;-74
2022/05/06 10:42:52;;;;;;;4.43;1.60;;;11.70;99.90;;;;;;5055385;28;19958;-77
2022/05/06 10:45:31;;;;;;;2.40;1.50;;;11.60;99.90;;;;;;5055276;28;20021;-75
2022/05/06 10:47:58;;;;;;;5.70;1.90;;;11.70;99.90;;;;;;5054471;28;20112;-77
2022/05/06 10:50:37;;;;;;;9.27;2.33;;;11.60;99.90;;;;;;5055317;28;20017;-77
2022/05/06 10:53:05;;;;;;;3.50;2.13;;;11.60;99.90;;;;;;5054150;28;20013;-69
2022/05/06 10:55:33;;;;;;;5.60;2.33;;;11.60;99.90;;;;;;5053944;28;20024;-69
2022/05/06 10:58:05;;;;;;;5.90;2.58;;;11.60;99.90;;;;;;5054389;28;20435;-71
2022/05/06 11:00:37;;;;;;;9.48;3.03;;;11.60;99.90;;;;;;5055674;28;20063;-70
2022/05/06 11:03:06;;;;;;;5.55;2.72;;;11.60;99.90;;;;;;5055853;28;20100;-78
2022/05/06 11:05:34;;;;;;;6.53;3.00;;;11.60;99.90;;;;;;5054197;28;20019;-71
2022/05/06 11:08:04;;;;;;;4.57;2.50;;;11.60;99.90;;;;;;5054444;28;20043;-71
2022/05/06 11:10:33;;;;;;;5.10;2.42;;;11.50;99.90;;;;;;5057750;28;20091;-77
2022/05/06 11:13:06;;;;;;;6.90;2.83;;;11.50;99.90;;;;;;5056800;28;20147;-77
2022/05/06 11:15:36;;;;;;;4.22;2.22;;;11.40;99.90;;;;;;5056751;28;20079;-75
2022/05/06 11:18:06;;;;;;;7.55;3.25;;;11.40;99.90;;;;;;5054072;28;20021;-69
2022/05/06 11:20:40;;;;;;;3.55;2.10;;;11.30;99.90;;;;;;5056821;28;20055;-78
2022/05/06 11:23:11;;;;;;;6.22;2.72;;;11.30;99.90;;;;;;5054296;28;20389;-79
2022/05/06 11:25:41;;;;;;;7.95;2.70;;;11.30;99.90;;;;;;5053172;28;20490;-76
2022/05/06 11:28:25;;;;;;;7.47;2.42;;;11.30;99.90;;;;;;5052945;28;20021;-74
2022/05/06 11:30:54;;;;;;;7.30;2.30;;;11.20;99.90;;;;;;5054070;28;20120;-77
2022/05/06 11:33:27;;;;;;;5.15;2.40;;;11.20;99.90;;;;;;5053721;28;20106;-77
2022/05/06 11:36:03;;;;;;;7.07;2.63;;;11.20;99.90;;;;;;5053648;28;20045;-77
2022/05/06 11:38:36;;;;;;;5.20;2.53;;;11.10;99.90;;;;;;5053731;28;20017;-77
2022/05/06 11:41:12;;;;;;;6.00;2.50;;;11.10;99.90;;;;;;5053543;28;20025;-77
2022/05/06 11:43:41;;;;;;;4.43;2.70;;;11.10;99.90;;;;;;5053216;28;20027;-69
2022/05/06 11:49:08;;;;;;;8.32;2.85;;;11.10;99.90;;;;;;5065857;28;20016;-77
2022/05/06 11:51:43;;;;;;;4.13;2.03;;;11.00;99.90;;;;;;5073268;28;20020;-76
2022/05/06 11:54:12;;;;;;;6.28;2.40;;;11.00;99.90;;;;;;5073534;28;20579;-76
2022/05/06 11:56:41;;;;;;;10.45;2.88;;;11.00;99.90;;;;;;5069168;28;20036;-69
2022/05/06 11:59:11;;;;;;;6.40;3.33;;;10.90;99.90;;;;;;5073006;28;20037;-77
2022/05/06 12:01:40;;;;;;;5.78;2.70;;;10.90;99.90;;;;;;5072793;28;20024;-69
2022/05/06 12:04:09;;;;;;;4.25;2.55;;;10.90;99.90;;;;;;5072525;28;20033;-76
2022/05/06 12:06:40;;;;;;;6.03;2.67;;;10.80;99.90;;;;;;5073072;28;20020;-76
2022/05/06 12:09:22;;;;;;;6.07;2.92;;;10.80;99.90;;;;;;5073024;28;20021;-76
2022/05/06 12:12:04;;;;;;;4.18;2.40;;;10.70;99.90;;;;;;5072323;28;20103;-68
2022/05/06 12:14:31;;;;;;;4.65;2.72;;;10.70;99.90;;;;;;5067626;28;20020;-69
2022/05/06 12:17:01;;;;;;;5.07;2.97;;;10.70;99.90;;;;;;5062147;28;20031;-69
2022/05/06 12:19:40;;;;;;;8.40;1.88;;;10.70;99.90;;;;;;5071751;28;20040;-69
2022/05/06 12:22:13;;;;;;;6.68;2.17;;;10.70;99.90;;;;;;5072027;28;20016;-68
2022/05/06 12:24:48;;;;;;;9.30;2.85;;;10.60;99.90;;;;;;5070637;28;20731;-69
2022/05/06 12:27:34;;;;;;;4.57;2.50;;;10.60;99.90;;;;;;5072048;28;20024;-76
2022/05/06 12:30:02;;;;;;;5.18;2.40;;;10.60;99.90;;;;;;5068217;28;20082;-70
2022/05/06 12:32:30;;;;;;;4.85;2.53;;;10.50;99.90;;;;;;5072235;28;20020;-76
2022/05/06 12:35:05;;;;;;;6.22;2.38;;;10.50;99.90;;;;;;5072356;28;20132;-76
2022/05/06 12:37:33;;;;;;;7.85;2.63;;;10.50;99.90;;;;;;5063597;28;20086;-75
2022/05/06 12:40:02;;;;;;;5.15;2.28;;;10.40;99.90;;;;;;5057581;28;20036;-70
2022/05/06 12:42:29;;;;;;;7.10;2.50;;;10.50;99.90;;;;;;5069896;28;20477;-69
2022/05/06 12:45:04;;;;;;;6.32;1.92;;;10.50;99.90;;;;;;5069640;28;20032;-70
2022/05/06 12:50:18;;;;;;;3.25;2.10;;;10.40;99.90;;;;;;5070429;28;20036;-70
2022/05/06 12:52:46;;;;;;;4.85;2.50;;;10.40;99.90;;;;;;5072120;28;20040;-76
2022/05/06 12:55:14;;;;;;;3.15;2.20;;;10.40;99.90;;;;;;5072573;28;20424;-77
2022/05/06 12:57:42;;;;;;;3.33;2.15;;;10.40;99.90;;;;;;5072467;28;20109;-76
2022/05/06 13:00:10;;;;;;;3.72;1.77;;;10.30;99.90;;;;;;5072079;28;20564;-69
2022/05/06 13:02:38;;;;;;;8.13;2.08;;;10.30;99.90;;;;;;5072418;28;20078;-71
2022/05/06 13:05:06;;;;;;;3.13;2.30;;;10.20;99.90;;;;;;5071277;28;20492;-76
2022/05/06 13:07:33;;;;;;;3.33;1.48;;;10.10;99.90;;;;;;5081652;28;20035;-72
2022/05/06 13:10:01;;;;;;;4.18;1.90;;;10.10;99.90;;;;;;5060745;28;20055;-77
2022/05/06 13:12:29;;;;;;;3.17;1.90;;;10.00;99.90;;;;;;5060239;28;20024;-72
2022/05/06 13:14:56;;;;;;;5.20;1.77;;;10.00;99.90;;;;;;5057297;28;20043;-76
2022/05/06 13:17:23;;;;;;;2.38;1.55;;;10.00;99.90;;;;;;5065696;28;20435;-77
2022/05/06 13:19:51;;;;;;;3.13;1.60;;;10.00;99.90;;;;;;5070626;28;20032;-70
2022/05/06 13:22:20;;;;;;;2.78;1.67;;;10.00;99.90;;;;;;5072213;28;20024;-70
2022/05/06 13:24:47;;;;;;;3.47;1.40;;;10.00;99.90;;;;;;5072195;28;20530;-71
2022/05/06 13:27:15;;;;;;;4.18;1.92;;;10.00;99.90;;;;;;5072272;28;20024;-70
2022/05/06 13:29:42;;;;;;;2.60;1.67;;;10.00;99.90;;;;;;5071970;28;20831;-77
2022/05/06 13:32:09;;;;;;;3.35;1.25;;;10.00;99.90;;;;;;5072138;28;20013;-77
2022/05/06 13:34:37;;;;;;;2.40;1.73;;;10.00;99.90;;;;;;5071837;28;20094;-73
2022/05/06 13:37:04;;;;;;;3.42;2.28;;;10.00;99.90;;;;;;5069296;28;20033;-77
2022/05/06 13:39:32;;;;;;;2.90;1.92;;;10.00;99.90;;;;;;5072163;28;20036;-77
2022/05/06 13:41:59;;;;;;;3.50;2.20;;;9.90;99.90;;;;;;5071922;28;20024;-77
2022/05/06 13:44:26;;;;;;;4.20;2.13;;;9.90;99.90;;;;;;5071975;28;20074;-70
2022/05/06 13:46:54;;;;;;;5.57;1.50;;;9.90;99.90;;;;;;5071949;28;20470;-76
2022/05/06 13:49:21;;;;;;;4.13;1.88;;;9.80;99.90;;;;;;5071959;28;20484;-76